Time;durP1;ratioP1;P1;durP2;ratioP2;P2;SDS_P1;SDS_P2;PMS_P1;PMS_P2;Temp;Humidity;BMP_temperature;BMP_pressure;BME280_temperature;BME280_humidity;BME280_pressure;Samples;Min_cycle;Max_cycle;Signal;HPM_P1;HPM_P2
2022/05/01 00:01:29;;;;;;;18.75;14.15;;;;;;;10.52;66.61;102371.69;5032486;28;20511;-64
2022/05/01 00:03:55;;;;;;;17.77;13.70;;;;;;;10.53;66.59;102376.09;5032346;28;20409;-63
2022/05/01 00:06:20;;;;;;;15.80;13.95;;;;;;;10.53;66.23;102376.09;5030790;28;20086;-63
2022/05/01 00:08:47;;;;;;;16.58;14.05;;;;;;;10.53;66.38;102374.31;5030718;28;20033;-63
2022/05/01 00:11:13;;;;;;;18.35;13.40;;;;;;;10.55;66.18;102371.59;5047582;28;20485;-64
2022/05/01 00:13:41;;;;;;;16.30;13.45;;;;;;;10.58;66.23;102376.78;5032225;28;20017;-63
2022/05/01 00:16:07;;;;;;;15.25;13.13;;;;;;;10.62;66.01;102373.09;5032206;28;20087;-63
2022/05/01 00:18:33;;;;;;;19.48;13.52;;;;;;;10.60;65.88;102366.97;5031415;28;20029;-64
2022/05/01 00:20:58;;;;;;;14.75;13.13;;;;;;;10.60;66.31;102366.97;5031932;28;20037;-64
2022/05/01 00:23:26;;;;;;;16.38;13.30;;;;;;;10.60;65.60;102377.59;5030506;28;20081;-63
2022/05/01 00:25:53;;;;;;;15.63;14.05;;;;;;;10.61;65.82;102369.53;5032021;28;20461;-64
2022/05/01 00:28:18;;;;;;;16.85;13.00;;;;;;;10.52;66.32;102377.88;5030313;28;20029;-64
2022/05/01 00:30:44;;;;;;;14.50;13.05;;;;;;;10.52;66.29;102367.25;5047075;28;20033;-64
2022/05/01 00:38:38;;;;;;;15.50;13.90;;;;;;;10.51;66.40;102367.31;5032851;28;20040;-64
2022/05/01 00:41:07;;;;;;;16.83;14.70;;;;;;;10.49;66.10;102366.50;5051598;28;20037;-64
2022/05/01 00:43:33;;;;;;;16.20;14.50;;;;;;;10.48;66.82;102372.75;5050313;28;20031;-63
2022/05/01 00:45:58;;;;;;;15.85;14.25;;;;;;;10.47;66.97;102371.91;5044869;28;20022;-63
2022/05/01 00:48:24;;;;;;;16.45;14.38;;;;;;;10.41;66.71;102366.78;5029940;28;20036;-63
2022/05/01 00:50:52;;;;;;;18.45;14.35;;;;;;;10.38;67.25;102362.47;5031057;28;20026;-63
2022/05/01 00:53:18;;;;;;;18.10;14.40;;;;;;;10.38;67.28;102356.25;5046842;28;20022;-63
2022/05/01 00:55:44;;;;;;;18.30;14.95;;;;;;;10.35;67.22;102359.94;5046772;28;20033;-64
2022/05/01 00:58:09;;;;;;;16.65;14.98;;;;;;;10.38;66.80;102356.25;5031149;28;20485;-63
2022/05/01 01:00:35;;;;;;;16.92;14.75;;;;;;;10.41;66.80;102353.47;5031038;28;20033;-64
2022/05/01 01:03:01;;;;;;;16.70;14.80;;;;;;;10.31;67.04;102349.44;5046792;28;20445;-64
2022/05/01 01:05:27;;;;;;;17.20;14.88;;;;;;;10.30;66.73;102347.72;5031081;28;20483;-63
2022/05/01 01:07:55;;;;;;;15.82;14.23;;;;;;;10.27;67.41;102338.06;5031106;28;20473;-63
2022/05/01 01:10:21;;;;;;;16.92;14.82;;;;;;;10.32;67.52;102352.03;5031076;28;20057;-64
2022/05/01 01:12:53;;;;;;;16.95;15.20;;;;;;;10.37;67.07;102351.88;5030190;28;20126;-64
2022/05/01 01:15:22;;;;;;;16.60;14.82;;;;;;;10.38;67.13;102351.84;5031046;28;20025;-63
2022/05/01 01:17:52;;;;;;;17.33;15.02;;;;;;;10.29;67.21;102349.50;5031032;28;20028;-63
2022/05/01 01:20:39;;;;;;;21.15;15.38;;;;;;;10.38;66.55;102349.16;5030227;28;20400;-64
2022/05/01 01:23:05;;;;;;;17.52;14.40;;;;;;;10.37;67.24;102347.41;5030904;28;20052;-64
2022/05/01 01:25:32;;;;;;;16.80;14.35;;;;;;;10.33;67.62;102351.13;5046384;28;20037;-63
2022/05/01 01:28:02;;;;;;;16.48;14.77;;;;;;;10.35;67.24;102354.59;5031146;28;20079;-64
2022/05/01 01:33:16;;;;;;;16.80;14.80;;;;;;;10.33;66.85;102352.94;5031164;28;20040;-64
2022/05/01 01:35:42;;;;;;;15.70;14.05;;;;;;;10.31;66.70;102349.44;5029003;28;20380;-63
2022/05/01 01:38:10;;;;;;;16.33;13.88;;;;;;;10.27;66.94;102343.38;5029378;28;20107;-64
2022/05/01 01:40:51;;;;;;;17.00;14.80;;;;;;;10.23;67.13;102334.63;5029057;28;20392;-64
2022/05/01 01:43:18;;;;;;;16.38;14.65;;;;;;;10.23;67.42;102353.25;5030848;28;20033;-63
2022/05/01 01:45:45;;;;;;;16.25;14.65;;;;;;;10.22;67.12;102338.19;5046121;28;20025;-63
2022/05/01 01:48:18;;;;;;;17.65;15.75;;;;;;;10.18;67.58;102331.28;5030314;28;20036;-63
2022/05/01 01:51:01;;;;;;;16.27;14.57;;;;;;;10.22;67.57;102340.84;5030426;28;20104;-63
2022/05/01 01:53:29;;;;;;;17.58;15.68;;;;;;;10.14;68.00;102340.25;5029801;28;20022;-64
2022/05/01 01:55:57;;;;;;;17.38;15.18;;;;;;;10.14;68.17;102344.72;5030707;28;20017;-63
2022/05/01 01:58:22;;;;;;;17.52;15.70;;;;;;;10.10;67.98;102340.47;5029406;28;20071;-63
2022/05/01 02:00:48;;;;;;;21.85;16.48;;;;;;;10.07;68.17;102338.78;5030615;28;20029;-63
2022/05/01 02:03:14;;;;;;;17.98;15.88;;;;;;;10.05;68.38;102348.59;5030393;28;20033;-63
2022/05/01 02:05:42;;;;;;;17.48;15.68;;;;;;;10.09;68.35;102344.00;5030283;28;20025;-63
2022/05/01 02:08:08;;;;;;;17.05;15.25;;;;;;;10.01;68.48;102346.97;5030445;28;20025;-63
2022/05/01 02:10:35;;;;;;;17.85;15.05;;;;;;;9.96;68.53;102339.16;5048422;28;20029;-63
2022/05/01 02:13:02;;;;;;;19.27;16.58;;;;;;;9.94;68.83;102342.78;5034652;28;20083;-63
2022/05/01 02:15:32;;;;;;;18.52;16.52;;;;;;;10.02;68.34;102338.94;5034423;28;20021;-63
2022/05/01 02:17:59;;;;;;;18.05;16.15;;;;;;;9.92;68.81;102329.56;5034431;28;20025;-63
2022/05/01 02:20:26;;;;;;;18.80;16.52;;;;;;;9.85;68.70;102322.72;5049074;28;20041;-63
2022/05/01 02:22:54;;;;;;;18.85;16.25;;;;;;;9.87;68.69;102330.66;5049640;28;20045;-63
2022/05/01 02:25:23;;;;;;;19.58;15.52;;;;;;;9.80;69.28;102326.50;5032754;28;20044;-63
2022/05/01 02:27:55;;;;;;;17.25;15.45;;;;;;;9.82;68.99;102328.16;5034120;28;20461;-63
2022/05/01 02:30:21;;;;;;;18.17;16.17;;;;;;;9.81;69.02;102328.22;5032568;28;20033;-63
2022/05/01 02:32:46;;;;;;;17.95;15.65;;;;;;;9.82;68.86;102321.97;5049387;28;20061;-63
2022/05/01 02:35:12;;;;;;;19.80;17.08;;;;;;;9.73;69.36;102324.03;5048576;28;20083;-63
2022/05/01 02:37:38;;;;;;;18.10;16.20;;;;;;;9.70;69.26;102316.19;5032679;28;20029;-63
2022/05/01 02:40:06;;;;;;;19.08;16.48;;;;;;;9.70;69.30;102312.66;5049137;28;20040;-63
2022/05/01 02:42:33;;;;;;;18.67;15.95;;;;;;;9.77;68.91;102311.53;5034173;28;20021;-63
2022/05/01 02:44:59;;;;;;;21.33;16.58;;;;;;;9.70;69.05;102308.22;5033904;28;20056;-63
2022/05/01 02:47:25;;;;;;;18.52;16.58;;;;;;;9.67;69.10;102302.16;5048878;28;20073;-63
2022/05/01 02:49:51;;;;;;;18.13;16.05;;;;;;;9.71;69.11;102304.66;5032062;28;20500;-63
2022/05/01 02:52:16;;;;;;;18.83;16.70;;;;;;;9.74;69.11;102307.19;5032368;28;20033;-63
2022/05/01 02:54:41;;;;;;;18.27;16.52;;;;;;;9.70;68.97;102316.19;5032414;28;20029;-64
2022/05/01 02:57:08;;;;;;;20.23;17.42;;;;;;;9.66;69.22;102300.41;5033459;28;20040;-63
2022/05/01 02:59:34;;;;;;;19.02;16.35;;;;;;;9.65;69.25;102304.88;5033330;28;20021;-63
2022/05/01 03:02:00;;;;;;;18.55;16.65;;;;;;;9.64;69.39;102308.44;5033756;28;20194;-63
2022/05/01 03:04:28;;;;;;;20.20;16.23;;;;;;;9.64;69.60;102307.56;5031873;28;20025;-63
2022/05/01 03:06:54;;;;;;;20.00;17.42;;;;;;;9.63;69.50;102308.50;5033237;28;20038;-63
2022/05/01 03:09:20;;;;;;;22.70;17.52;;;;;;;9.57;69.56;102301.63;5048609;28;20045;-63
2022/05/01 03:11:48;;;;;;;20.25;16.77;;;;;;;9.50;69.78;102297.41;5048848;28;20067;-63
2022/05/01 03:14:14;;;;;;;20.38;18.17;;;;;;;9.47;70.18;102301.09;5031671;28;20045;-63
2022/05/01 03:16:40;;;;;;;21.83;17.70;;;;;;;9.42;70.27;102304.81;5048317;28;20059;-63
2022/05/01 03:24:36;;;;;;;20.83;17.77;;;;;;;9.39;70.16;102296.97;5046524;28;20095;-63
2022/05/01 03:27:03;;;;;;;20.27;18.08;;;;;;;9.35;70.54;102290.84;5033093;28;20478;-63
2022/05/01 03:29:32;;;;;;;19.77;17.55;;;;;;;9.36;70.40;102289.97;5033007;28;20032;-63
2022/05/01 03:31:59;;;;;;;23.10;17.67;;;;;;;9.36;70.33;102295.28;5033319;28;20108;-63
2022/05/01 03:34:26;;;;;;;21.50;17.67;;;;;;;9.36;70.33;102294.41;5047705;28;20166;-63
2022/05/01 03:36:54;;;;;;;20.95;18.85;;;;;;;9.20;70.60;102280.78;5031823;28;20021;-63
2022/05/01 03:39:20;;;;;;;22.02;19.73;;;;;;;9.30;70.61;102290.19;5032889;28;20464;-63
2022/05/01 03:41:46;;;;;;;21.25;18.75;;;;;;;9.29;70.59;102288.41;5031635;28;20053;-64
2022/05/01 03:44:12;;;;;;;20.45;18.35;;;;;;;9.30;70.47;102285.72;5032035;28;20472;-63
2022/05/01 03:46:38;;;;;;;22.27;19.92;;;;;;;9.30;70.20;102284.88;5048224;28;20045;-64
2022/05/01 03:49:06;;;;;;;21.08;18.70;;;;;;;9.27;70.54;102284.97;5032315;28;20037;-64
2022/05/01 03:51:33;;;;;;;21.25;18.98;;;;;;;9.23;70.77;102285.97;5032746;28;20476;-63
2022/05/01 03:54:02;;;;;;;22.85;19.02;;;;;;;9.18;70.84;102285.28;5032567;28;20026;-63
2022/05/01 03:56:29;;;;;;;22.02;19.70;;;;;;;9.13;70.65;102284.56;5033288;28;20376;-63
2022/05/01 03:58:56;;;;;;;22.75;19.77;;;;;;;9.11;70.43;102281.94;5047691;28;20025;-63
2022/05/01 04:01:21;;;;;;;21.40;19.10;;;;;;;9.01;70.88;102278.75;5032330;28;20032;-63
2022/05/01 04:03:48;;;;;;;21.77;19.38;;;;;;;8.98;70.74;102286.81;5031460;28;20033;-64
2022/05/01 04:06:13;;;;;;;23.77;20.35;;;;;;;8.93;71.25;102282.56;5032478;28;20052;-63
2022/05/01 04:08:41;;;;;;;23.20;20.65;;;;;;;8.84;71.23;102283.75;5047608;28;20021;-63
2022/05/01 04:11:06;;;;;;;23.92;20.48;;;;;;;8.89;71.15;102297.75;5031061;28;20547;-63
2022/05/01 04:13:33;;;;;;;22.83;20.30;;;;;;;8.75;71.47;102287.56;5031517;28;20029;-63
2022/05/01 04:15:58;;;;;;;23.33;20.88;;;;;;;8.68;71.84;102285.16;5047889;28;20473;-63
2022/05/01 04:18:26;;;;;;;23.65;20.58;;;;;;;8.72;71.65;102285.00;5047333;28;20043;-63
2022/05/01 04:20:53;;;;;;;23.75;20.88;;;;;;;8.66;71.73;102287.88;5046841;28;20470;-63
2022/05/01 04:23:19;;;;;;;24.02;21.42;;;;;;;8.67;71.64;102291.38;5030217;28;20041;-63
2022/05/01 04:25:45;;;;;;;23.45;20.88;;;;;;;8.51;72.08;102285.69;5032018;28;20044;-63
2022/05/01 04:28:12;;;;;;;24.52;21.92;;;;;;;8.54;71.98;102286.47;5047268;28;20488;-64
2022/05/01 04:30:39;;;;;;;24.63;19.98;;;;;;;8.50;72.02;102287.50;5031644;28;20068;-63
2022/05/01 04:33:10;;;;;;;23.65;20.77;;;;;;;8.53;71.90;102282.09;5031121;28;20045;-63
2022/05/01 04:35:43;;;;;;;25.23;21.83;;;;;;;8.45;72.28;102280.59;5031206;28;20029;-63
2022/05/01 04:38:13;;;;;;;24.98;22.25;;;;;;;8.54;72.06;102282.94;5031740;28;20357;-63
2022/05/01 04:40:40;;;;;;;;;;;;;;;8.70;70.21;102284.19;5031652;28;20362;-63
2022/05/01 04:43:07;;;;;;;25.35;22.63;;;;;;;8.50;72.06;102286.59;5030861;28;19913;-64
2022/05/01 04:45:34;;;;;;;25.27;22.65;;;;;;;8.42;72.36;102286.84;5030147;28;20491;-63
2022/05/01 04:48:01;;;;;;;31.08;22.58;;;;;;;8.37;72.33;102281.66;5031610;28;20473;-63
2022/05/01 04:50:27;;;;;;;26.00;22.75;;;;;;;8.39;72.90;102290.47;5046522;28;20369;-63
2022/05/01 04:52:54;;;;;;;27.17;23.70;;;;;;;8.32;72.87;102293.31;5031336;28;20045;-63
2022/05/01 04:55:19;;;;;;;27.27;23.02;;;;;;;8.34;72.87;102288.84;5031172;28;20064;-63
2022/05/01 04:57:47;;;;;;;29.38;23.45;;;;;;;8.32;73.05;102295.94;5031289;28;20456;-64
2022/05/01 05:00:18;;;;;;;26.67;23.80;;;;;;;8.29;73.07;102296.03;5029974;28;20065;-63
2022/05/01 05:02:47;;;;;;;27.58;24.67;;;;;;;8.25;73.47;102302.38;5031221;28;20080;-63
2022/05/01 05:05:12;;;;;;;27.20;24.00;;;;;;;8.33;73.18;102289.75;5028830;28;20451;-63
2022/05/01 05:07:39;;;;;;;28.90;24.50;;;;;;;8.38;73.11;102299.34;5031009;28;20109;-63
2022/05/01 05:10:07;;;;;;;29.27;24.30;;;;;;;8.27;73.37;102296.09;5030877;28;20044;-63
2022/05/01 05:12:34;;;;;;;33.40;25.08;;;;;;;8.36;72.97;102298.47;5046168;28;20025;-63
2022/05/01 05:15:00;;;;;;;29.02;24.80;;;;;;;8.26;73.60;102297.00;5030148;28;20029;-63
2022/05/01 05:17:27;;;;;;;27.80;24.48;;;;;;;8.29;73.28;102299.56;5031340;28;20017;-63
2022/05/01 05:19:53;;;;;;;29.52;26.17;;;;;;;8.28;73.35;102292.53;5030636;28;20095;-63
2022/05/01 05:22:20;;;;;;;29.65;24.33;;;;;;;8.38;73.39;102301.06;5030450;28;20045;-64
2022/05/01 05:24:46;;;;;;;31.60;25.63;;;;;;;8.26;73.77;102299.66;5029579;28;20108;-63
2022/05/01 05:27:12;;;;;;;28.83;25.08;;;;;;;8.26;73.38;102294.34;5030942;28;20117;-63
2022/05/01 05:29:38;;;;;;;30.05;26.70;;;;;;;8.36;73.50;102301.13;5030869;28;20025;-64
2022/05/01 05:32:05;;;;;;;31.70;26.45;;;;;;;8.38;73.54;102309.03;5029340;28;20519;-63
2022/05/01 05:34:30;;;;;;;29.27;25.45;;;;;;;8.44;73.55;102316.81;5012686;28;20392;-63
2022/05/01 05:36:56;;;;;;;32.72;26.83;;;;;;;8.47;73.38;102307.91;5013394;28;20029;-63
2022/05/01 05:39:21;;;;;;;31.00;25.92;;;;;;;8.51;73.40;102317.53;5029145;28;20022;-63
2022/05/01 05:41:47;;;;;;;35.22;26.35;;;;;;;8.53;73.62;102315.66;5030808;28;20531;-63
2022/05/01 05:44:12;;;;;;;33.90;26.58;;;;;;;8.54;73.62;102318.28;5031386;28;20029;-63
2022/05/01 05:46:38;;;;;;;28.90;25.42;;;;;;;8.43;74.36;102320.41;5033508;28;20037;-63
2022/05/01 05:49:03;;;;;;;31.10;27.13;;;;;;;8.46;74.30;102315.00;5034402;28;20037;-63
2022/05/01 05:51:29;;;;;;;30.45;27.15;;;;;;;8.43;74.18;102319.53;5034686;28;20033;-63
2022/05/01 05:53:56;;;;;;;33.22;26.80;;;;;;;8.40;74.56;102324.00;5034680;28;20017;-63
2022/05/01 05:56:25;;;;;;;31.35;27.38;;;;;;;8.45;74.80;102321.22;5050118;28;20021;-63
2022/05/01 05:58:50;;;;;;;33.38;27.42;;;;;;;8.46;74.86;102320.28;5049810;28;20483;-64
2022/05/01 06:01:16;;;;;;;34.38;27.73;;;;;;;8.51;74.45;102331.66;5034609;28;20110;-63
2022/05/01 06:03:42;;;;;;;32.55;27.00;;;;;;;8.55;74.21;102320.00;5032566;28;20028;-63
2022/05/01 06:06:07;;;;;;;32.20;27.23;;;;;;;8.66;74.59;102327.66;5034518;28;20060;-63
2022/05/01 06:08:35;;;;;;;32.70;28.35;;;;;;;8.72;74.49;102322.16;5049825;28;20029;-63
2022/05/01 06:11:01;;;;;;;34.05;27.92;;;;;;;8.93;73.92;102319.72;5033053;28;20014;-63
2022/05/01 06:13:27;;;;;;;32.97;28.00;;;;;;;9.02;74.01;102324.72;5034612;28;20381;-63
2022/05/01 06:15:52;;;;;;;30.90;27.08;;;;;;;9.13;73.35;102322.59;5049765;28;20030;-63
2022/05/01 06:18:18;;;;;;;31.15;26.65;;;;;;;9.27;72.98;102325.66;5032814;28;20029;-63
2022/05/01 06:20:44;;;;;;;31.48;26.15;;;;;;;9.34;72.41;102328.97;5033894;28;20032;-63
2022/05/01 06:23:10;;;;;;;31.45;25.55;;;;;;;9.48;72.51;102332.03;5033809;28;20421;-63
2022/05/01 06:25:38;;;;;;;33.20;26.40;;;;;;;9.53;71.98;102322.13;5034157;28;20411;-63
2022/05/01 06:28:04;;;;;;;29.38;26.15;;;;;;;9.80;71.25;102329.16;5034331;28;20123;-63
2022/05/01 06:30:32;;;;;;;28.88;25.70;;;;;;;9.90;71.38;102333.19;5049153;28;20468;-63
2022/05/01 06:32:57;;;;;;;32.20;24.92;;;;;;;10.01;70.74;102334.53;5033970;28;20029;-63
2022/05/01 06:35:24;;;;;;;29.27;24.05;;;;;;;9.95;70.57;102329.47;5033390;28;20075;-63
2022/05/01 06:37:50;;;;;;;29.52;25.45;;;;;;;10.12;70.34;102341.28;5033917;28;20096;-63
2022/05/01 06:40:16;;;;;;;29.77;23.77;;;;;;;10.16;69.68;102346.41;5048932;28;20120;-63
2022/05/01 06:42:42;;;;;;;29.75;25.83;;;;;;;10.32;69.89;102344.06;5033681;28;20452;-63
2022/05/01 06:45:07;;;;;;;30.80;25.77;;;;;;;10.35;68.98;102346.63;5033748;28;20034;-63
2022/05/01 06:47:33;;;;;;;29.45;25.20;;;;;;;10.41;68.60;102337.53;5032337;28;20403;-63
2022/05/01 06:49:58;;;;;;;29.85;25.70;;;;;;;10.43;69.49;102335.69;5048895;28;20511;-63
2022/05/01 06:52:25;;;;;;;33.45;25.50;;;;;;;10.52;69.50;102340.63;5048406;28;20033;-63
2022/05/01 06:54:51;;;;;;;26.92;24.00;;;;;;;10.57;69.46;102343.13;5033440;28;20025;-63
2022/05/01 06:57:19;;;;;;;32.10;24.40;;;;;;;10.71;69.21;102339.91;5033739;28;20047;-63
2022/05/01 06:59:45;;;;;;;27.35;24.20;;;;;;;10.78;68.29;102341.41;5033426;28;20029;-63
2022/05/01 07:02:13;;;;;;;29.80;24.02;;;;;;;10.89;67.80;102341.84;5033189;28;20023;-64
2022/05/01 07:04:39;;;;;;;26.42;23.35;;;;;;;10.94;67.70;102345.19;5048035;28;20057;-63
2022/05/01 07:07:04;;;;;;;30.90;26.10;;;;;;;11.00;67.93;102342.28;5033343;28;20076;-63
2022/05/01 07:09:30;;;;;;;27.10;24.25;;;;;;;11.19;67.58;102334.41;5032967;28;20061;-64
2022/05/01 07:11:56;;;;;;;28.75;23.27;;;;;;;11.31;66.22;102338.34;5033376;28;20021;-63
2022/05/01 07:14:22;;;;;;;29.25;23.38;;;;;;;11.27;66.09;102336.75;5032007;28;20492;-63
2022/05/01 07:16:47;;;;;;;27.10;23.63;;;;;;;11.23;66.81;102341.31;5033383;28;20021;-63
2022/05/01 07:19:14;;;;;;;25.77;22.52;;;;;;;11.32;65.94;102348.94;5048048;28;20037;-63
2022/05/01 07:21:40;;;;;;;26.20;21.90;;;;;;;11.48;65.84;102346.50;5032331;28;20025;-63
2022/05/01 07:24:10;;;;;;;25.48;22.38;;;;;;;11.41;65.74;102341.47;5048343;28;20038;-63
2022/05/01 07:26:35;;;;;;;31.73;22.98;;;;;;;11.21;65.57;102311.25;5032973;28;20112;-63
2022/05/01 07:29:02;;;;;;;23.52;20.73;;;;;;;11.33;65.12;102341.81;5031105;28;20192;-64
2022/05/01 07:31:28;;;;;;;28.27;21.13;;;;;;;11.32;65.81;102345.41;5031376;28;20014;-64
2022/05/01 07:33:53;;;;;;;25.15;22.35;;;;;;;11.26;65.45;102346.50;5031073;28;20038;-64
2022/05/01 07:36:21;;;;;;;26.67;20.27;;;;;;;11.26;65.02;102348.31;5032845;28;20029;-63
2022/05/01 07:38:48;;;;;;;25.33;20.73;;;;;;;11.26;64.75;102348.31;5032883;28;20032;-64
2022/05/01 07:41:16;;;;;;;24.40;21.17;;;;;;;11.26;65.03;102351.84;5032381;28;20473;-63
2022/05/01 07:43:42;;;;;;;23.83;21.25;;;;;;;11.21;65.03;102350.34;5031452;28;20031;-64
2022/05/01 07:46:10;;;;;;;24.92;21.05;;;;;;;11.22;65.97;102344.91;5048295;28;20025;-64
2022/05/01 07:48:35;;;;;;;26.15;22.67;;;;;;;11.30;66.37;102350.81;5032247;28;20033;-64
2022/05/01 07:51:03;;;;;;;27.27;21.42;;;;;;;11.36;65.68;102344.34;5032156;28;20032;-64
2022/05/01 07:53:29;;;;;;;26.15;21.40;;;;;;;11.47;65.76;102350.09;5032332;28;20033;-63
2022/05/01 07:55:57;;;;;;;24.23;21.55;;;;;;;11.65;64.17;102360.88;5048041;28;20091;-63
2022/05/01 07:58:23;;;;;;;24.25;21.50;;;;;;;11.91;64.41;102346.44;5032401;28;20035;-64
2022/05/01 08:00:48;;;;;;;25.25;19.50;;;;;;;12.18;63.22;102344.34;5032407;28;20026;-64
2022/05/01 08:05:58;;;;;;;22.90;18.50;;;;;;;12.65;60.93;102343.94;5032578;28;20396;-64
2022/05/01 08:08:26;;;;;;;21.48;19.30;;;;;;;12.84;60.71;102343.91;5031613;28;20029;-64
2022/05/01 08:10:52;;;;;;;23.33;18.45;;;;;;;13.00;60.38;102336.88;5047374;28;20517;-63
2022/05/01 08:13:18;;;;;;;19.15;17.02;;;;;;;13.15;59.07;102338.78;5047575;28;20116;-64
2022/05/01 08:15:44;;;;;;;20.20;16.90;;;;;;;13.31;58.00;102341.56;5032151;28;20404;-63
2022/05/01 08:21:07;;;;;;;18.23;15.75;;;;;;;13.42;56.39;102333.00;5031634;28;20037;-63
2022/05/01 08:23:40;;;;;;;18.80;15.77;;;;;;;13.51;57.18;102324.53;5031377;28;21335;-64
2022/05/01 08:26:07;;;;;;;20.00;15.75;;;;;;;13.80;55.82;102324.81;5032131;28;20535;-64
2022/05/01 08:28:34;;;;;;;13.52;11.25;;;;;;;13.88;52.39;102332.41;5031761;28;20067;-63
2022/05/01 08:31:00;;;;;;;13.60;11.07;;;;;;;14.12;50.92;102330.22;5031736;28;20458;-64
2022/05/01 08:33:27;;;;;;;13.15;11.75;;;;;;;14.21;52.21;102335.97;5031259;28;20056;-64
2022/05/01 08:35:55;;;;;;;11.32;9.40;;;;;;;14.35;50.01;102339.69;5031198;28;20468;-64
2022/05/01 08:38:21;;;;;;;12.88;10.27;;;;;;;14.30;49.06;102334.59;5031576;28;20280;-64
2022/05/01 08:40:49;;;;;;;11.93;10.60;;;;;;;14.46;49.25;102329.25;5046957;28;20044;-64
2022/05/01 08:43:16;;;;;;;13.27;9.20;;;;;;;14.62;47.89;102338.19;5031431;28;20098;-64
2022/05/01 08:45:57;;;;;;;12.35;9.63;;;;;;;14.82;49.57;102334.38;5031573;28;20029;-64
2022/05/01 08:48:36;;;;;;;10.75;9.43;;;;;;;15.06;48.29;102329.44;5031784;28;20025;-64
2022/05/01 08:51:04;;;;;;;12.15;9.07;;;;;;;15.13;45.35;102322.75;5031747;28;20029;-64
2022/05/01 08:53:31;;;;;;;12.10;8.23;;;;;;;14.99;44.25;102328.03;5031128;28;20021;-64
2022/05/01 08:55:58;;;;;;;9.85;6.97;;;;;;;15.16;43.50;102327.06;5031576;28;20029;-64
2022/05/01 08:58:26;;;;;;;9.70;7.20;;;;;;;15.23;43.05;102320.38;5046520;28;20041;-64
2022/05/01 09:00:53;;;;;;;8.93;7.82;;;;;;;15.24;43.05;102324.81;5031196;28;20026;-63
2022/05/01 09:03:18;;;;;;;9.18;8.10;;;;;;;15.30;42.36;102327.13;5046128;28;20076;-64
2022/05/01 09:05:44;;;;;;;10.32;8.73;;;;;;;15.29;42.79;102317.34;5030610;28;20048;-64
2022/05/01 09:08:11;;;;;;;10.25;8.48;;;;;;;15.01;43.07;102299.34;5031362;28;20026;-64
2022/05/01 09:10:42;;;;;;;9.73;7.75;;;;;;;14.89;42.84;102330.41;5031188;28;20068;-64
2022/05/01 09:13:08;;;;;;;9.05;7.63;;;;;;;14.85;42.79;102322.63;5046580;28;20473;-64
2022/05/01 09:15:43;;;;;;;8.65;7.45;;;;;;;14.91;42.08;102330.28;5046150;28;20495;-64
2022/05/01 09:18:11;;;;;;;9.70;8.05;;;;;;;14.86;42.40;102335.06;5029691;28;20084;-64
2022/05/01 09:21:01;;;;;;;10.52;8.35;;;;;;;14.94;43.21;102330.13;5030161;28;20021;-64
2022/05/01 09:23:38;;;;;;;9.18;8.15;;;;;;;14.89;43.15;102314.31;5031085;28;20555;-64
2022/05/01 09:26:04;;;;;;;9.20;7.32;;;;;;;14.95;41.83;102323.81;5030757;28;20186;-64
2022/05/01 09:28:30;;;;;;;8.50;7.30;;;;;;;14.75;42.27;102316.94;5030947;28;20021;-64
2022/05/01 09:30:56;;;;;;;8.05;6.90;;;;;;;14.82;42.29;102322.78;5046475;28;20422;-64
2022/05/01 09:33:24;;;;;;;9.43;7.60;;;;;;;15.00;41.58;102332.47;5030424;28;20029;-64
2022/05/01 09:35:50;;;;;;;8.38;7.45;;;;;;;15.24;41.12;102323.94;5030012;28;20025;-64
2022/05/01 09:38:22;;;;;;;8.75;7.25;;;;;;;15.52;40.79;102323.16;5030874;28;20129;-64
2022/05/01 09:40:49;;;;;;;10.77;7.90;;;;;;;15.73;39.57;102327.22;5045864;28;20025;-64
2022/05/01 09:43:36;;;;;;;8.93;7.93;;;;;;;15.91;40.12;102322.53;5030818;28;20491;-64
2022/05/01 09:46:23;;;;;;;9.60;6.97;;;;;;;15.99;40.29;102324.78;5045537;28;20461;-64
2022/05/01 09:49:05;;;;;;;8.15;6.60;;;;;;;16.27;39.46;102329.28;5030114;28;20124;-64
2022/05/01 09:51:38;;;;;;;10.23;7.40;;;;;;;16.45;38.06;102322.72;5030816;28;20534;-64
2022/05/01 09:54:05;;;;;;;7.95;7.15;;;;;;;16.47;37.45;102323.50;5046046;28;20033;-64
2022/05/01 09:57:21;;;;;;;8.77;7.38;;;;;;;16.47;39.34;102322.63;5045764;28;20388;-64
2022/05/01 09:59:47;;;;;;;7.97;7.07;;;;;;;16.00;38.09;102315.75;4989219;28;20093;-64
2022/05/01 10:02:15;;;;;;;8.30;7.40;;;;;;;15.82;38.24;102315.06;5025978;28;20033;-64
2022/05/01 10:04:42;;;;;;;10.45;8.10;;;;;;;15.73;38.13;102323.69;5030307;28;20038;-64
2022/05/01 10:07:08;;;;;;;8.68;7.45;;;;;;;15.72;37.91;102316.59;5030522;28;20029;-64
2022/05/01 10:09:35;;;;;;;11.18;8.07;;;;;;;15.60;38.52;102315.50;5029144;28;20030;-64
2022/05/01 10:12:07;;;;;;;8.20;7.28;;;;;;;15.70;38.33;102314.00;5030934;28;20067;-64
2022/05/01 10:14:33;;;;;;;12.48;7.97;;;;;;;15.60;37.33;102304.78;5030256;28;20437;-65
2022/05/01 10:17:01;;;;;;;9.35;7.65;;;;;;;15.48;37.67;102314.44;5030519;28;20034;-64
2022/05/01 10:19:26;;;;;;;7.78;7.00;;;;;;;15.75;37.84;102311.06;5030490;28;20026;-64
2022/05/01 10:21:59;;;;;;;8.15;7.35;;;;;;;15.89;37.24;102308.38;5030296;28;20030;-64
2022/05/01 10:24:25;;;;;;;8.73;7.93;;;;;;;15.90;37.25;102307.41;5013258;28;20033;-64
2022/05/01 10:26:56;;;;;;;8.70;7.47;;;;;;;16.09;36.88;102299.09;5045531;28;20400;-64
2022/05/01 10:33:09;;;;;;;10.13;7.35;;;;;;;16.19;38.29;102302.06;5033973;28;20079;-64
2022/05/01 10:35:51;;;;;;;10.65;8.07;;;;;;;16.17;38.37;102299.44;5033704;28;20036;-64
2022/05/01 10:38:39;;;;;;;7.80;7.00;;;;;;;16.20;38.01;102293.03;5033840;28;20358;-64
2022/05/01 10:41:06;;;;;;;10.15;7.13;;;;;;;16.09;37.50;102289.22;5049287;28;20025;-64
2022/05/01 10:43:35;;;;;;;9.82;7.03;;;;;;;15.97;37.03;102290.00;5033552;28;20073;-64
2022/05/01 10:46:03;;;;;;;9.80;7.82;;;;;;;15.72;38.82;102287.09;5049266;28;20029;-64
2022/05/01 10:48:40;;;;;;;9.00;7.85;;;;;;;15.64;38.35;102293.75;5033689;28;20079;-64
2022/05/01 10:51:27;;;;;;;10.32;7.60;;;;;;;15.69;39.14;102287.28;5033922;28;20045;-64
2022/05/01 10:54:13;;;;;;;11.45;8.00;;;;;;;15.59;38.47;102286.97;5033680;28;20044;-64
2022/05/01 10:56:40;;;;;;;12.15;8.18;;;;;;;15.57;37.61;102283.50;5033995;28;20025;-64
2022/05/01 10:59:31;;;;;;;10.23;8.15;;;;;;;15.49;38.05;102281.28;5033284;28;20048;-65
2022/05/01 11:02:35;;;;;;;11.27;8.18;;;;;;;15.39;37.97;102274.78;5033728;28;20036;-64
2022/05/01 11:05:03;;;;;;;8.45;7.55;;;;;;;15.31;38.21;102271.69;5030183;28;20072;-64
2022/05/01 11:07:34;;;;;;;10.90;8.30;;;;;;;15.35;37.82;102263.38;5048968;28;20098;-65
2022/05/01 11:10:07;;;;;;;8.88;7.25;;;;;;;15.46;38.20;102265.38;5048412;28;20314;-64
2022/05/01 11:12:35;;;;;;;10.52;7.70;;;;;;;15.46;38.78;102265.38;5033232;28;20041;-64
2022/05/01 11:15:08;;;;;;;12.50;8.27;;;;;;;15.53;38.90;102269.44;5033808;28;20100;-64
2022/05/01 11:17:36;;;;;;;8.98;7.85;;;;;;;15.50;37.88;102271.41;5033249;28;20033;-64
2022/05/01 11:20:08;;;;;;;9.93;8.30;;;;;;;15.54;37.77;102265.78;5032632;28;20029;-65
2022/05/01 11:22:34;;;;;;;12.50;8.63;;;;;;;15.66;37.57;102254.28;5048014;28;20049;-64
2022/05/01 11:25:00;;;;;;;11.20;8.75;;;;;;;15.56;37.14;102255.84;5033165;28;20461;-64
2022/05/01 11:27:26;;;;;;;9.20;8.30;;;;;;;15.57;38.45;102249.50;5033013;28;20381;-64
2022/05/01 11:30:07;;;;;;;7.80;7.10;;;;;;;15.64;38.98;102250.84;5033248;28;20025;-64
2022/05/01 11:32:47;;;;;;;8.85;8.00;;;;;;;15.67;38.87;102244.41;5031280;28;20079;-64
2022/05/01 11:35:16;;;;;;;9.77;8.30;;;;;;;15.67;37.02;102242.63;5047492;28;20021;-64
2022/05/01 11:37:59;;;;;;;10.75;8.00;;;;;;;15.81;38.27;102243.59;5033062;28;20028;-64
2022/05/01 11:40:28;;;;;;;9.43;7.85;;;;;;;15.65;37.45;102241.00;5032664;28;20049;-64
2022/05/01 11:43:16;;;;;;;9.30;7.32;;;;;;;15.78;37.58;102239.28;5029965;28;20025;-64
2022/05/01 11:45:42;;;;;;;8.63;7.65;;;;;;;15.53;36.93;102231.00;5048147;28;20120;-64